sensor_id;sensor_type;location;lat;lon;timestamp;P1;durP1;ratioP1;P2;durP2;ratioP2
14272;SDS011;7220;49.450;11.052;2023-02-28T00:03:39;4.23;;;3.17;;
14272;SDS011;7220;49.450;11.052;2023-02-28T00:07:40;4.07;;;3.10;;
14272;SDS011;7220;49.450;11.052;2023-02-28T00:11:41;4.47;;;3.57;;
14272;SDS011;7220;49.450;11.052;2023-02-28T00:15:42;6.00;;;3.13;;
14272;SDS011;7220;49.450;11.052;2023-02-28T00:19:42;3.80;;;3.20;;
14272;SDS011;7220;49.450;11.052;2023-02-28T00:23:42;4.37;;;3.33;;
14272;SDS011;7220;49.450;11.052;2023-02-28T00:27:43;4.03;;;3.57;;
14272;SDS011;7220;49.450;11.052;2023-02-28T00:31:44;4.27;;;3.23;;
14272;SDS011;7220;49.450;11.052;2023-02-28T00:35:45;3.50;;;3.20;;
14272;SDS011;7220;49.450;11.052;2023-02-28T00:39:48;4.57;;;4.17;;
14272;SDS011;7220;49.450;11.052;2023-02-28T00:43:48;4.53;;;3.43;;
14272;SDS011;7220;49.450;11.052;2023-02-28T00:47:49;3.73;;;3.30;;
14272;SDS011;7220;49.450;11.052;2023-02-28T00:51:49;4.10;;;3.40;;
14272;SDS011;7220;49.450;11.052;2023-02-28T00:55:50;3.70;;;3.37;;
14272;SDS011;7220;49.450;11.052;2023-02-28T00:59:50;3.87;;;3.47;;
14272;SDS011;7220;49.450;11.052;2023-02-28T01:03:54;4.80;;;3.80;;
14272;SDS011;7220;49.450;11.052;2023-02-28T01:07:54;4.90;;;3.70;;
14272;SDS011;7220;49.450;11.052;2023-02-28T01:11:54;6.17;;;3.93;;
14272;SDS011;7220;49.450;11.052;2023-02-28T01:15:55;5.10;;;3.67;;
14272;SDS011;7220;49.450;11.052;2023-02-28T01:19:56;4.50;;;3.70;;
14272;SDS011;7220;49.450;11.052;2023-02-28T01:23:56;5.37;;;3.47;;
14272;SDS011;7220;49.450;11.052;2023-02-28T01:27:57;4.53;;;3.80;;
14272;SDS011;7220;49.450;11.052;2023-02-28T01:31:58;4.03;;;3.63;;
14272;SDS011;7220;49.450;11.052;2023-02-28T01:36:03;3.77;;;3.33;;
14272;SDS011;7220;49.450;11.052;2023-02-28T01:40:05;5.63;;;3.70;;
14272;SDS011;7220;49.450;11.052;2023-02-28T01:44:53;3.90;;;3.60;;
14272;SDS011;7220;49.450;11.052;2023-02-28T01:48:52;5.27;;;3.50;;
14272;SDS011;7220;49.450;11.052;2023-02-28T01:52:57;4.77;;;3.67;;
14272;SDS011;7220;49.450;11.052;2023-02-28T01:57:02;4.80;;;3.30;;
14272;SDS011;7220;49.450;11.052;2023-02-28T02:01:07;3.97;;;3.50;;
14272;SDS011;7220;49.450;11.052;2023-02-28T02:05:08;3.67;;;3.33;;
14272;SDS011;7220;49.450;11.052;2023-02-28T02:09:15;5.20;;;4.20;;
14272;SDS011;7220;49.450;11.052;2023-02-28T02:17:53;3.80;;;3.47;;
14272;SDS011;7220;49.450;11.052;2023-02-28T02:30:58;7.73;;;4.30;;
14272;SDS011;7220;49.450;11.052;2023-02-28T02:35:14;4.23;;;3.83;;
14272;SDS011;7220;49.450;11.052;2023-02-28T02:39:30;4.47;;;3.47;;
14272;SDS011;7220;49.450;11.052;2023-02-28T02:43:39;4.20;;;3.67;;
14272;SDS011;7220;49.450;11.052;2023-02-28T02:47:46;6.07;;;4.23;;
14272;SDS011;7220;49.450;11.052;2023-02-28T02:51:48;6.13;;;4.40;;
14272;SDS011;7220;49.450;11.052;2023-02-28T02:55:51;7.03;;;4.30;;
14272;SDS011;7220;49.450;11.052;2023-02-28T02:59:54;5.80;;;4.30;;
14272;SDS011;7220;49.450;11.052;2023-02-28T03:03:56;6.83;;;4.57;;
14272;SDS011;7220;49.450;11.052;2023-02-28T03:07:59;6.47;;;4.20;;
14272;SDS011;7220;49.450;11.052;2023-02-28T03:12:02;6.57;;;4.23;;
14272;SDS011;7220;49.450;11.052;2023-02-28T03:20:35;5.97;;;4.30;;
14272;SDS011;7220;49.450;11.052;2023-02-28T03:25:02;6.10;;;4.40;;
14272;SDS011;7220;49.450;11.052;2023-02-28T03:29:22;8.47;;;5.10;;
14272;SDS011;7220;49.450;11.052;2023-02-28T03:33:28;7.03;;;4.77;;
14272;SDS011;7220;49.450;11.052;2023-02-28T03:37:32;6.33;;;4.83;;
14272;SDS011;7220;49.450;11.052;2023-02-28T03:41:37;6.07;;;4.87;;
14272;SDS011;7220;49.450;11.052;2023-02-28T03:45:41;6.93;;;5.10;;
14272;SDS011;7220;49.450;11.052;2023-02-28T03:49:50;7.13;;;5.77;;
14272;SDS011;7220;49.450;11.052;2023-02-28T03:53:59;7.00;;;5.23;;
14272;SDS011;7220;49.450;11.052;2023-02-28T03:58:18;6.20;;;5.10;;
14272;SDS011;7220;49.450;11.052;2023-02-28T04:02:35;7.70;;;5.50;;
14272;SDS011;7220;49.450;11.052;2023-02-28T04:06:35;7.33;;;5.77;;
14272;SDS011;7220;49.450;11.052;2023-02-28T04:10:36;6.23;;;5.47;;
14272;SDS011;7220;49.450;11.052;2023-02-28T04:14:37;6.60;;;5.53;;
14272;SDS011;7220;49.450;11.052;2023-02-28T04:18:40;7.33;;;5.13;;
14272;SDS011;7220;49.450;11.052;2023-02-28T04:22:42;11.33;;;5.60;;
14272;SDS011;7220;49.450;11.052;2023-02-28T04:26:47;6.57;;;5.53;;
14272;SDS011;7220;49.450;11.052;2023-02-28T04:31:00;6.57;;;5.87;;
14272;SDS011;7220;49.450;11.052;2023-02-28T04:35:02;6.67;;;5.07;;
14272;SDS011;7220;49.450;11.052;2023-02-28T04:39:02;6.83;;;5.23;;
14272;SDS011;7220;49.450;11.052;2023-02-28T04:43:04;8.27;;;5.97;;
14272;SDS011;7220;49.450;11.052;2023-02-28T04:47:04;6.93;;;5.37;;
14272;SDS011;7220;49.450;11.052;2023-02-28T04:51:05;6.10;;;5.50;;
14272;SDS011;7220;49.450;11.052;2023-02-28T04:55:08;6.47;;;5.40;;
14272;SDS011;7220;49.450;11.052;2023-02-28T04:59:08;8.63;;;6.27;;
14272;SDS011;7220;49.450;11.052;2023-02-28T05:03:09;6.37;;;5.17;;
14272;SDS011;7220;49.450;11.052;2023-02-28T05:07:09;6.70;;;5.53;;
14272;SDS011;7220;49.450;11.052;2023-02-28T05:11:17;8.40;;;5.63;;
14272;SDS011;7220;49.450;11.052;2023-02-28T05:15:19;6.60;;;5.67;;
14272;SDS011;7220;49.450;11.052;2023-02-28T05:19:19;6.17;;;5.37;;
14272;SDS011;7220;49.450;11.052;2023-02-28T05:23:21;6.50;;;5.37;;
14272;SDS011;7220;49.450;11.052;2023-02-28T05:27:22;7.47;;;6.23;;
14272;SDS011;7220;49.450;11.052;2023-02-28T05:31:23;7.33;;;5.57;;
14272;SDS011;7220;49.450;11.052;2023-02-28T05:35:23;8.43;;;6.00;;
14272;SDS011;7220;49.450;11.052;2023-02-28T05:39:24;6.33;;;5.73;;
14272;SDS011;7220;49.450;11.052;2023-02-28T05:43:24;7.50;;;5.77;;
14272;SDS011;7220;49.450;11.052;2023-02-28T05:47:25;8.03;;;5.40;;
14272;SDS011;7220;49.450;11.052;2023-02-28T05:51:25;9.63;;;5.80;;
14272;SDS011;7220;49.450;11.052;2023-02-28T05:55:25;7.03;;;6.33;;
14272;SDS011;7220;49.450;11.052;2023-02-28T05:59:26;8.33;;;6.57;;
14272;SDS011;7220;49.450;11.052;2023-02-28T06:03:26;9.53;;;7.00;;
14272;SDS011;7220;49.450;11.052;2023-02-28T06:07:26;7.60;;;6.43;;
14272;SDS011;7220;49.450;11.052;2023-02-28T06:11:27;6.23;;;5.33;;
14272;SDS011;7220;49.450;11.052;2023-02-28T06:15:27;7.00;;;5.60;;
14272;SDS011;7220;49.450;11.052;2023-02-28T06:19:28;6.63;;;5.83;;
14272;SDS011;7220;49.450;11.052;2023-02-28T06:23:30;8.20;;;5.57;;
14272;SDS011;7220;49.450;11.052;2023-02-28T06:27:31;8.37;;;5.90;;
14272;SDS011;7220;49.450;11.052;2023-02-28T06:31:32;8.83;;;6.27;;
14272;SDS011;7220;49.450;11.052;2023-02-28T06:35:32;7.93;;;6.23;;
14272;SDS011;7220;49.450;11.052;2023-02-28T06:39:32;7.80;;;5.50;;
14272;SDS011;7220;49.450;11.052;2023-02-28T06:43:34;7.07;;;5.80;;
14272;SDS011;7220;49.450;11.052;2023-02-28T06:47:37;7.53;;;5.43;;
14272;SDS011;7220;49.450;11.052;2023-02-28T06:51:42;8.67;;;6.43;;
14272;SDS011;7220;49.450;11.052;2023-02-28T06:55:46;7.60;;;5.90;;
14272;SDS011;7220;49.450;11.052;2023-02-28T06:59:46;7.90;;;6.30;;
14272;SDS011;7220;49.450;11.052;2023-02-28T07:03:46;9.57;;;6.10;;
14272;SDS011;7220;49.450;11.052;2023-02-28T07:07:51;8.80;;;6.20;;
14272;SDS011;7220;49.450;11.052;2023-02-28T07:11:52;10.03;;;6.17;;
14272;SDS011;7220;49.450;11.052;2023-02-28T07:15:54;9.33;;;6.60;;
14272;SDS011;7220;49.450;11.052;2023-02-28T07:19:55;10.53;;;6.57;;
14272;SDS011;7220;49.450;11.052;2023-02-28T07:23:56;10.10;;;7.00;;
14272;SDS011;7220;49.450;11.052;2023-02-28T07:27:56;9.87;;;6.30;;
14272;SDS011;7220;49.450;11.052;2023-02-28T07:31:58;11.13;;;6.90;;
14272;SDS011;7220;49.450;11.052;2023-02-28T07:36:12;7.80;;;6.67;;
14272;SDS011;7220;49.450;11.052;2023-02-28T07:40:15;8.17;;;6.63;;
14272;SDS011;7220;49.450;11.052;2023-02-28T07:44:17;10.10;;;6.97;;
14272;SDS011;7220;49.450;11.052;2023-02-28T07:48:18;8.30;;;6.87;;
14272;SDS011;7220;49.450;11.052;2023-02-28T07:52:18;9.53;;;6.70;;
14272;SDS011;7220;49.450;11.052;2023-02-28T07:56:18;10.10;;;6.43;;
14272;SDS011;7220;49.450;11.052;2023-02-28T08:00:19;8.33;;;6.93;;
14272;SDS011;7220;49.450;11.052;2023-02-28T08:04:19;9.90;;;7.07;;
14272;SDS011;7220;49.450;11.052;2023-02-28T08:08:19;10.87;;;7.80;;
14272;SDS011;7220;49.450;11.052;2023-02-28T08:12:20;11.87;;;8.57;;
14272;SDS011;7220;49.450;11.052;2023-02-28T08:16:21;9.87;;;7.30;;
14272;SDS011;7220;49.450;11.052;2023-02-28T08:20:22;9.57;;;7.63;;
14272;SDS011;7220;49.450;11.052;2023-02-28T08:24:23;9.93;;;8.07;;
14272;SDS011;7220;49.450;11.052;2023-02-28T08:28:24;10.20;;;7.80;;
14272;SDS011;7220;49.450;11.052;2023-02-28T08:32:24;10.80;;;7.35;;
14272;SDS011;7220;49.450;11.052;2023-02-28T08:36:25;9.43;;;7.90;;
14272;SDS011;7220;49.450;11.052;2023-02-28T08:40:28;11.43;;;7.43;;
14272;SDS011;7220;49.450;11.052;2023-02-28T08:44:28;9.40;;;7.77;;
14272;SDS011;7220;49.450;11.052;2023-02-28T08:48:29;11.65;;;8.02;;
14272;SDS011;7220;49.450;11.052;2023-02-28T08:52:31;10.05;;;7.60;;
14272;SDS011;7220;49.450;11.052;2023-02-28T08:56:32;9.60;;;8.25;;
14272;SDS011;7220;49.450;11.052;2023-02-28T09:00:32;9.57;;;7.95;;
14272;SDS011;7220;49.450;11.052;2023-02-28T09:04:33;10.45;;;7.82;;
14272;SDS011;7220;49.450;11.052;2023-02-28T09:08:33;10.57;;;8.38;;
14272;SDS011;7220;49.450;11.052;2023-02-28T09:12:34;9.88;;;8.00;;
14272;SDS011;7220;49.450;11.052;2023-02-28T09:16:35;10.23;;;8.27;;
14272;SDS011;7220;49.450;11.052;2023-02-28T09:20:39;10.32;;;8.10;;
14272;SDS011;7220;49.450;11.052;2023-02-28T09:24:41;9.25;;;7.47;;
14272;SDS011;7220;49.450;11.052;2023-02-28T09:28:41;9.85;;;7.68;;
14272;SDS011;7220;49.450;11.052;2023-02-28T09:32:42;10.52;;;7.75;;
14272;SDS011;7220;49.450;11.052;2023-02-28T09:36:42;8.82;;;7.13;;
14272;SDS011;7220;49.450;11.052;2023-02-28T09:45:02;8.15;;;7.28;;
14272;SDS011;7220;49.450;11.052;2023-02-28T09:49:13;9.05;;;7.38;;
14272;SDS011;7220;49.450;11.052;2023-02-28T09:57:38;9.65;;;7.55;;
14272;SDS011;7220;49.450;11.052;2023-02-28T10:01:44;9.45;;;8.20;;
14272;SDS011;7220;49.450;11.052;2023-02-28T10:05:54;12.00;;;7.47;;
14272;SDS011;7220;49.450;11.052;2023-02-28T10:10:05;9.70;;;7.40;;
14272;SDS011;7220;49.450;11.052;2023-02-28T10:14:18;10.80;;;7.68;;
14272;SDS011;7220;49.450;11.052;2023-02-28T10:18:23;9.77;;;7.43;;
14272;SDS011;7220;49.450;11.052;2023-02-28T10:27:27;10.43;;;6.88;;
14272;SDS011;7220;49.450;11.052;2023-02-28T10:31:29;9.93;;;6.97;;
14272;SDS011;7220;49.450;11.052;2023-02-28T10:35:30;8.10;;;6.65;;
14272;SDS011;7220;49.450;11.052;2023-02-28T10:39:42;8.10;;;6.97;;
14272;SDS011;7220;49.450;11.052;2023-02-28T10:43:46;8.90;;;6.90;;
14272;SDS011;7220;49.450;11.052;2023-02-28T10:47:54;7.47;;;6.68;;
14272;SDS011;7220;49.450;11.052;2023-02-28T10:51:57;10.63;;;6.60;;
14272;SDS011;7220;49.450;11.052;2023-02-28T10:56:12;9.27;;;6.70;;
14272;SDS011;7220;49.450;11.052;2023-02-28T11:00:21;10.85;;;7.60;;
14272;SDS011;7220;49.450;11.052;2023-02-28T11:08:29;10.07;;;6.25;;
14272;SDS011;7220;49.450;11.052;2023-02-28T11:12:36;7.07;;;6.30;;
14272;SDS011;7220;49.450;11.052;2023-02-28T11:16:38;6.43;;;5.78;;
14272;SDS011;7220;49.450;11.052;2023-02-28T11:20:39;10.63;;;6.80;;
14272;SDS011;7220;49.450;11.052;2023-02-28T11:24:41;8.57;;;7.18;;
14272;SDS011;7220;49.450;11.052;2023-02-28T11:28:45;8.05;;;6.30;;
14272;SDS011;7220;49.450;11.052;2023-02-28T11:32:49;9.57;;;7.07;;
14272;SDS011;7220;49.450;11.052;2023-02-28T11:36:49;8.07;;;6.68;;
14272;SDS011;7220;49.450;11.052;2023-02-28T11:45:11;7.93;;;6.75;;
14272;SDS011;7220;49.450;11.052;2023-02-28T11:53:47;7.65;;;6.63;;
14272;SDS011;7220;49.450;11.052;2023-02-28T12:11:03;8.48;;;6.82;;
14272;SDS011;7220;49.450;11.052;2023-02-28T12:15:16;9.20;;;7.35;;
14272;SDS011;7220;49.450;11.052;2023-02-28T12:23:51;8.30;;;7.40;;
14272;SDS011;7220;49.450;11.052;2023-02-28T12:27:55;7.47;;;6.78;;
14272;SDS011;7220;49.450;11.052;2023-02-28T12:36:05;7.53;;;6.80;;
14272;SDS011;7220;49.450;11.052;2023-02-28T12:40:13;7.80;;;6.82;;
14272;SDS011;7220;49.450;11.052;2023-02-28T12:44:20;9.63;;;7.10;;
14272;SDS011;7220;49.450;11.052;2023-02-28T12:48:37;7.40;;;6.70;;
14272;SDS011;7220;49.450;11.052;2023-02-28T12:57:01;8.80;;;6.40;;
14272;SDS011;7220;49.450;11.052;2023-02-28T13:05:39;7.20;;;6.50;;
14272;SDS011;7220;49.450;11.052;2023-02-28T13:09:54;6.78;;;6.07;;
14272;SDS011;7220;49.450;11.052;2023-02-28T13:13:57;7.85;;;6.70;;
14272;SDS011;7220;49.450;11.052;2023-02-28T13:18:02;9.88;;;7.07;;
14272;SDS011;7220;49.450;11.052;2023-02-28T13:22:03;8.85;;;6.65;;
14272;SDS011;7220;49.450;11.052;2023-02-28T13:26:04;8.98;;;8.07;;
14272;SDS011;7220;49.450;11.052;2023-02-28T13:34:49;8.45;;;7.22;;
14272;SDS011;7220;49.450;11.052;2023-02-28T13:39:44;8.30;;;7.50;;
14272;SDS011;7220;49.450;11.052;2023-02-28T13:48:02;8.57;;;7.78;;
14272;SDS011;7220;49.450;11.052;2023-02-28T13:56:17;8.07;;;7.28;;
14272;SDS011;7220;49.450;11.052;2023-02-28T14:09:21;8.63;;;7.72;;
14272;SDS011;7220;49.450;11.052;2023-02-28T14:13:37;8.48;;;7.68;;
14272;SDS011;7220;49.450;11.052;2023-02-28T14:17:44;9.10;;;8.20;;
14272;SDS011;7220;49.450;11.052;2023-02-28T14:21:49;8.88;;;7.30;;
14272;SDS011;7220;49.450;11.052;2023-02-28T14:38:28;10.20;;;7.57;;
14272;SDS011;7220;49.450;11.052;2023-02-28T14:42:34;9.18;;;8.10;;
14272;SDS011;7220;49.450;11.052;2023-02-28T14:46:38;9.90;;;8.23;;
14272;SDS011;7220;49.450;11.052;2023-02-28T14:50:40;8.98;;;8.05;;
14272;SDS011;7220;49.450;11.052;2023-02-28T14:54:59;9.38;;;8.38;;
14272;SDS011;7220;49.450;11.052;2023-02-28T14:59:03;9.80;;;8.05;;
14272;SDS011;7220;49.450;11.052;2023-02-28T15:03:24;9.13;;;8.13;;
14272;SDS011;7220;49.450;11.052;2023-02-28T15:07:32;9.00;;;7.93;;
14272;SDS011;7220;49.450;11.052;2023-02-28T15:11:32;10.73;;;8.18;;
14272;SDS011;7220;49.450;11.052;2023-02-28T15:19:54;11.88;;;8.93;;
14272;SDS011;7220;49.450;11.052;2023-02-28T15:23:57;11.05;;;8.13;;
14272;SDS011;7220;49.450;11.052;2023-02-28T15:28:02;9.43;;;8.02;;
14272;SDS011;7220;49.450;11.052;2023-02-28T15:32:04;10.90;;;7.53;;
14272;SDS011;7220;49.450;11.052;2023-02-28T15:40:13;8.90;;;7.90;;
14272;SDS011;7220;49.450;11.052;2023-02-28T15:52:37;9.23;;;8.30;;
14272;SDS011;7220;49.450;11.052;2023-02-28T15:56:45;10.90;;;9.00;;
14272;SDS011;7220;49.450;11.052;2023-02-28T16:00:59;10.43;;;8.95;;
14272;SDS011;7220;49.450;11.052;2023-02-28T16:05:22;11.65;;;9.05;;
14272;SDS011;7220;49.450;11.052;2023-02-28T16:09:31;10.65;;;8.50;;
14272;SDS011;7220;49.450;11.052;2023-02-28T16:13:32;9.82;;;8.25;;
14272;SDS011;7220;49.450;11.052;2023-02-28T16:17:37;10.70;;;8.57;;
14272;SDS011;7220;49.450;11.052;2023-02-28T16:21:38;12.20;;;9.10;;
14272;SDS011;7220;49.450;11.052;2023-02-28T16:25:42;11.85;;;8.90;;
14272;SDS011;7220;49.450;11.052;2023-02-28T16:29:44;11.32;;;9.27;;
14272;SDS011;7220;49.450;11.052;2023-02-28T16:33:45;10.18;;;8.43;;
14272;SDS011;7220;49.450;11.052;2023-02-28T16:37:46;8.70;;;7.80;;
14272;SDS011;7220;49.450;11.052;2023-02-28T16:41:47;11.65;;;9.55;;
14272;SDS011;7220;49.450;11.052;2023-02-28T16:45:49;12.80;;;8.77;;
14272;SDS011;7220;49.450;11.052;2023-02-28T16:49:55;12.20;;;9.60;;
14272;SDS011;7220;49.450;11.052;2023-02-28T16:53:56;10.43;;;8.40;;
14272;SDS011;7220;49.450;11.052;2023-02-28T16:58:00;10.82;;;8.25;;
14272;SDS011;7220;49.450;11.052;2023-02-28T17:02:01;11.10;;;9.13;;
14272;SDS011;7220;49.450;11.052;2023-02-28T17:06:01;13.05;;;9.35;;
14272;SDS011;7220;49.450;11.052;2023-02-28T17:10:02;9.40;;;8.35;;
14272;SDS011;7220;49.450;11.052;2023-02-28T17:14:08;13.55;;;9.70;;
14272;SDS011;7220;49.450;11.052;2023-02-28T17:18:09;12.57;;;8.38;;
14272;SDS011;7220;49.450;11.052;2023-02-28T17:22:15;11.98;;;9.95;;
14272;SDS011;7220;49.450;11.052;2023-02-28T17:26:16;12.77;;;9.43;;
14272;SDS011;7220;49.450;11.052;2023-02-28T17:30:21;12.15;;;8.98;;
14272;SDS011;7220;49.450;11.052;2023-02-28T17:34:24;11.23;;;8.82;;
14272;SDS011;7220;49.450;11.052;2023-02-28T17:38:24;11.50;;;9.07;;
14272;SDS011;7220;49.450;11.052;2023-02-28T17:42:24;10.75;;;9.02;;
14272;SDS011;7220;49.450;11.052;2023-02-28T17:46:25;11.80;;;8.90;;
14272;SDS011;7220;49.450;11.052;2023-02-28T17:50:26;13.32;;;9.52;;
14272;SDS011;7220;49.450;11.052;2023-02-28T17:54:26;12.55;;;9.50;;
14272;SDS011;7220;49.450;11.052;2023-02-28T17:58:27;12.18;;;9.23;;
14272;SDS011;7220;49.450;11.052;2023-02-28T18:02:27;11.63;;;9.32;;
14272;SDS011;7220;49.450;11.052;2023-02-28T18:06:31;11.55;;;9.02;;
14272;SDS011;7220;49.450;11.052;2023-02-28T18:10:36;11.68;;;9.43;;
14272;SDS011;7220;49.450;11.052;2023-02-28T18:14:36;13.40;;;9.82;;
14272;SDS011;7220;49.450;11.052;2023-02-28T18:18:36;11.55;;;9.68;;
14272;SDS011;7220;49.450;11.052;2023-02-28T18:22:38;13.00;;;10.82;;
14272;SDS011;7220;49.450;11.052;2023-02-28T18:26:40;12.02;;;9.40;;
14272;SDS011;7220;49.450;11.052;2023-02-28T18:30:41;12.52;;;9.50;;
14272;SDS011;7220;49.450;11.052;2023-02-28T18:34:41;13.00;;;9.40;;
14272;SDS011;7220;49.450;11.052;2023-02-28T18:38:41;13.50;;;11.07;;
14272;SDS011;7220;49.450;11.052;2023-02-28T18:42:43;13.95;;;10.48;;
14272;SDS011;7220;49.450;11.052;2023-02-28T18:46:43;15.23;;;11.10;;
14272;SDS011;7220;49.450;11.052;2023-02-28T18:50:43;16.88;;;11.70;;
14272;SDS011;7220;49.450;11.052;2023-02-28T18:54:44;17.85;;;11.02;;
14272;SDS011;7220;49.450;11.052;2023-02-28T18:58:44;13.90;;;11.02;;
14272;SDS011;7220;49.450;11.052;2023-02-28T19:02:45;16.90;;;9.98;;
14272;SDS011;7220;49.450;11.052;2023-02-28T19:06:45;11.93;;;10.05;;
14272;SDS011;7220;49.450;11.052;2023-02-28T19:10:45;12.98;;;11.23;;
